Time;durP1;ratioP1;P1;durP2;ratioP2;P2;SDS_P1;SDS_P2;PMS_P1;PMS_P2;Temp;Humidity;BMP_temperature;BMP_pressure;BME280_temperature;BME280_humidity;BME280_pressure;Samples;Min_cycle;Max_cycle;Signal;HPM_P1;HPM_P2
2022/08/13 00:03:14;;;;;;;3.42;0.80;;;21.70;88.50;;;;;;7316013;32;20166;-64
2022/08/13 00:07:38;;;;;;;3.50;0.57;;;21.70;87.60;;;;;;7318247;32;20165;-62
2022/08/13 00:16:06;;;;;;;2.87;0.80;;;21.60;87.60;;;;;;7302855;32;20457;-64
2022/08/13 00:20:09;;;;;;;2.65;0.80;;;21.50;87.90;;;;;;7308251;32;20674;-64
2022/08/13 00:24:11;;;;;;;2.62;0.88;;;21.50;88.20;;;;;;7299416;32;20201;-63
2022/08/13 00:28:32;;;;;;;2.72;0.88;;;21.50;88.70;;;;;;7316853;32;20190;-64
2022/08/13 00:32:34;;;;;;;2.20;0.70;;;21.50;88.80;;;;;;7312183;32;20404;-63
2022/08/13 00:36:37;;;;;;;3.90;0.60;;;21.40;89.40;;;;;;7303856;32;20227;-64
2022/08/13 00:40:47;;;;;;;2.15;0.82;;;21.40;90.20;;;;;;7314345;32;20286;-64
2022/08/13 00:44:58;;;;;;;1.40;0.90;;;21.30;89.40;;;;;;7316663;32;20522;-64
2022/08/13 00:49:03;;;;;;;2.55;0.77;;;21.30;90.20;;;;;;7287677;32;20843;-64
2022/08/13 00:53:08;;;;;;;2.70;0.85;;;21.20;90.20;;;;;;7302297;32;20698;-65
2022/08/13 00:57:12;;;;;;;2.50;0.88;;;21.10;90.80;;;;;;7320192;32;20634;-64
2022/08/13 01:01:26;;;;;;;2.62;0.75;;;21.10;91.90;;;;;;7309737;32;20093;-64
2022/08/13 01:05:38;;;;;;;2.72;1.00;;;21.10;90.70;;;;;;7308156;32;20480;-64
2022/08/13 01:09:44;;;;;;;5.15;0.90;;;21.00;91.40;;;;;;7295253;32;20122;-64
2022/08/13 01:14:08;;;;;;;3.78;0.85;;;20.90;91.90;;;;;;7317462;32;20481;-63
2022/08/13 01:18:15;;;;;;;2.47;0.98;;;20.90;91.80;;;;;;7299303;32;20561;-64
2022/08/13 01:22:19;;;;;;;3.50;0.90;;;20.90;92.80;;;;;;7313169;32;20589;-64
2022/08/13 01:26:34;;;;;;;2.83;0.80;;;20.80;91.80;;;;;;7301649;32;20582;-64
2022/08/13 01:30:49;;;;;;;5.28;1.10;;;20.80;94.10;;;;;;7315067;32;20115;-64
2022/08/13 01:34:51;;;;;;;3.10;0.90;;;20.70;93.30;;;;;;7318135;32;20396;-62
2022/08/13 01:38:53;;;;;;;3.67;0.90;;;20.60;93.90;;;;;;7310262;32;20118;-64
2022/08/13 01:42:57;;;;;;;3.53;0.90;;;20.40;95.40;;;;;;7316243;32;20096;-63
2022/08/13 01:51:38;;;;;;;1.83;1.05;;;20.10;97.10;;;;;;7313459;32;20100;-64
2022/08/13 01:55:48;;;;;;;4.43;1.05;;;20.00;97.60;;;;;;7320404;32;20126;-63
2022/08/13 02:00:16;;;;;;;2.55;0.80;;;19.80;98.80;;;;;;7306183;32;20354;-64
2022/08/13 02:04:29;;;;;;;2.67;1.02;;;19.60;99.90;;;;;;7317497;32;20210;-64
2022/08/13 02:08:36;;;;;;;4.50;0.95;;;19.30;99.90;;;;;;7315317;32;20320;-63
2022/08/13 02:12:46;;;;;;;3.83;1.02;;;19.00;99.90;;;;;;7319229;32;20273;-64
2022/08/13 02:16:49;;;;;;;2.20;1.08;;;18.80;99.90;;;;;;7320580;32;20160;-63
2022/08/13 02:21:01;;;;;;;3.00;1.20;;;18.60;99.90;;;;;;7314412;32;20514;-64
2022/08/13 02:25:20;;;;;;;5.18;1.25;;;18.30;99.90;;;;;;7311877;32;20452;-63
2022/08/13 02:29:23;;;;;;;3.72;1.17;;;18.20;99.90;;;;;;7313897;32;20245;-63
2022/08/13 02:33:26;;;;;;;5.07;1.10;;;17.90;99.90;;;;;;7316377;32;20122;-63
2022/08/13 02:37:32;;;;;;;2.55;1.00;;;17.70;99.90;;;;;;7316691;32;20445;-64
2022/08/13 02:41:54;;;;;;;3.85;1.30;;;17.40;99.90;;;;;;7309706;32;20610;-65
2022/08/13 02:45:56;;;;;;;3.45;1.40;;;17.20;99.90;;;;;;7317108;32;20126;-63
2022/08/13 02:49:59;;;;;;;3.80;1.00;;;17.10;99.90;;;;;;7309155;32;20480;-64
2022/08/13 02:54:01;;;;;;;3.25;1.25;;;16.80;99.90;;;;;;7309224;32;20123;-63
2022/08/13 02:58:04;;;;;;;4.32;1.20;;;16.60;99.90;;;;;;7306485;32;20242;-63
2022/08/13 03:02:07;;;;;;;4.57;1.23;;;16.30;99.90;;;;;;7310227;32;20095;-64
2022/08/13 03:06:08;;;;;;;1.65;1.10;;;16.20;99.90;;;;;;7312265;32;20592;-64
2022/08/13 03:10:13;;;;;;;3.03;1.30;;;16.10;99.90;;;;;;7301726;32;20219;-64
2022/08/13 03:14:20;;;;;;;7.15;1.45;;;16.00;99.90;;;;;;7301957;32;20103;-64
2022/08/13 03:18:30;;;;;;;2.22;1.30;;;15.90;99.90;;;;;;7310445;32;20262;-64
2022/08/13 03:22:55;;;;;;;1.75;1.40;;;15.80;99.90;;;;;;7302282;32;20226;-64
2022/08/13 03:27:00;;;;;;;;;;;15.60;99.90;;;;;;7309538;32;20194;-64
2022/08/13 03:31:02;;;;;;;3.50;1.52;;;15.50;99.90;;;;;;7310814;32;20269;-64
2022/08/13 03:35:05;;;;;;;7.05;1.65;;;15.40;99.90;;;;;;7319120;32;20625;-64
2022/08/13 03:39:15;;;;;;;2.30;1.40;;;15.40;99.90;;;;;;7314768;32;20095;-63
2022/08/13 03:43:18;;;;;;;7.07;1.52;;;15.30;99.90;;;;;;7307360;32;20431;-64
2022/08/13 03:47:24;;;;;;;3.22;1.27;;;15.30;99.90;;;;;;7310062;32;20511;-64
2022/08/13 03:51:32;;;;;;;4.47;1.48;;;15.00;99.90;;;;;;7316507;32;20695;-64
2022/08/13 03:55:41;;;;;;;5.20;1.40;;;15.00;99.90;;;;;;7313528;32;20556;-64
2022/08/13 03:59:47;;;;;;;6.97;1.60;;;14.90;99.90;;;;;;7315241;32;20149;-64
2022/08/13 04:03:50;;;;;;;1.85;1.52;;;14.80;99.90;;;;;;7300797;32;20141;-64
2022/08/13 04:07:53;;;;;;;2.42;1.60;;;14.60;99.90;;;;;;7317534;32;20213;-64
2022/08/13 04:11:58;;;;;;;6.47;1.60;;;14.50;99.90;;;;;;7301898;32;20295;-63
2022/08/13 04:16:31;;;;;;;3.58;1.65;;;14.50;99.90;;;;;;7303335;32;20096;-64
2022/08/13 04:20:34;;;;;;;1.90;1.70;;;14.50;99.90;;;;;;7313930;32;20154;-63
2022/08/13 04:24:36;;;;;;;5.28;1.37;;;14.30;99.90;;;;;;7313760;32;20746;-63
2022/08/13 04:28:43;;;;;;;2.55;1.70;;;14.40;99.90;;;;;;7315896;32;20673;-65
2022/08/13 04:32:48;;;;;;;3.85;2.08;;;14.40;99.90;;;;;;7311184;32;20122;-64
2022/08/13 04:37:10;;;;;;;4.40;1.98;;;14.30;99.90;;;;;;7313585;32;20108;-65
2022/08/13 04:41:22;;;;;;;4.82;2.12;;;14.30;99.90;;;;;;7300296;32;20666;-64
2022/08/13 04:45:26;;;;;;;1.77;1.58;;;14.20;99.90;;;;;;7315189;32;20168;-64
2022/08/13 04:49:31;;;;;;;5.20;1.92;;;14.10;99.90;;;;;;7308967;32;20193;-63
2022/08/13 04:53:36;;;;;;;4.15;1.90;;;14.10;99.90;;;;;;7316930;32;20145;-64
2022/08/13 04:57:52;;;;;;;3.85;1.83;;;14.10;99.90;;;;;;7314802;32;20235;-64
2022/08/13 05:02:02;;;;;;;2.50;1.55;;;14.30;99.90;;;;;;7308499;32;20211;-65
2022/08/13 05:06:03;;;;;;;5.78;1.50;;;14.60;99.90;;;;;;7312610;32;20199;-64
2022/08/13 05:10:06;;;;;;;4.15;1.65;;;15.00;99.90;;;;;;7307764;32;20180;-65
2022/08/13 05:14:09;;;;;;;4.60;1.70;;;15.20;99.90;;;;;;7311930;32;20138;-65
2022/08/13 05:18:13;;;;;;;2.25;1.58;;;15.20;99.90;;;;;;7314438;32;20170;-64
2022/08/13 05:22:29;;;;;;;4.53;1.50;;;15.20;99.90;;;;;;7312118;32;20119;-65
2022/08/13 05:26:31;;;;;;;3.25;1.58;;;15.30;99.90;;;;;;7319407;32;20613;-65
2022/08/13 05:30:53;;;;;;;2.80;1.60;;;15.20;99.90;;;;;;7314383;32;20104;-65
2022/08/13 05:34:55;;;;;;;5.90;1.73;;;15.20;99.90;;;;;;7316701;32;20227;-65
2022/08/13 05:38:58;;;;;;;3.00;1.83;;;15.20;99.90;;;;;;7319433;32;20464;-65
2022/08/13 05:43:00;;;;;;;3.08;1.73;;;15.30;99.90;;;;;;7312885;32;20107;-65
2022/08/13 05:47:05;;;;;;;2.55;1.75;;;15.40;99.90;;;;;;7310463;32;20158;-64
2022/08/13 05:51:12;;;;;;;6.70;2.05;;;15.50;99.90;;;;;;7310827;32;20194;-69
2022/08/13 05:55:14;;;;;;;3.70;1.75;;;15.50;99.90;;;;;;7311638;32;20964;-63
2022/08/13 06:04:00;;;;;;;1.80;1.42;;;15.90;99.90;;;;;;7311786;32;20099;-64
2022/08/13 06:08:28;;;;;;;3.20;1.62;;;15.90;99.90;;;;;;7307397;32;20191;-62
2022/08/13 06:12:50;;;;;;;4.15;1.90;;;16.10;99.90;;;;;;7308670;32;20130;-63
2022/08/13 06:17:00;;;;;;;7.15;2.08;;;16.20;99.90;;;;;;7318752;32;20127;-63
2022/08/13 06:21:13;;;;;;;6.45;1.98;;;16.40;99.90;;;;;;7309657;32;20190;-63
2022/08/13 06:25:35;;;;;;;7.72;1.92;;;16.50;99.90;;;;;;7314161;32;20222;-61
2022/08/13 06:29:57;;;;;;;3.45;1.70;;;16.80;99.90;;;;;;7308446;32;20104;-63
2022/08/13 06:33:59;;;;;;;5.22;4.07;;;17.00;99.90;;;;;;7309183;32;20153;-63
2022/08/13 06:38:30;;;;;;;7.75;2.00;;;17.20;99.90;;;;;;7311876;32;20100;-65
2022/08/13 06:42:35;;;;;;;2.67;1.42;;;17.50;99.90;;;;;;7315424;32;20132;-64
2022/08/13 06:46:39;;;;;;;2.55;1.85;;;17.80;99.90;;;;;;7293647;32;20270;-63
2022/08/13 06:50:47;;;;;;;3.40;1.70;;;18.00;99.90;;;;;;7308230;32;20095;-63
2022/08/13 06:54:49;;;;;;;4.40;2.03;;;18.40;99.90;;;;;;7317227;32;20116;-64
2022/08/13 06:58:54;;;;;;;6.22;2.33;;;18.60;99.90;;;;;;7312708;32;20215;-62
2022/08/13 07:03:02;;;;;;;37.17;26.20;;;18.90;99.90;;;;;;7312027;32;20189;-69
2022/08/13 07:07:04;;;;;;;7.37;2.95;;;19.20;99.90;;;;;;7309528;32;20618;-68
2022/08/13 07:11:21;;;;;;;5.40;1.70;;;19.40;99.90;;;;;;7318009;32;20419;-67
2022/08/13 07:15:45;;;;;;;4.65;1.77;;;19.70;99.90;;;;;;7317679;32;20497;-59
2022/08/13 07:19:47;;;;;;;2.40;1.73;;;20.00;99.90;;;;;;7308892;32;20153;-66
2022/08/13 07:24:10;;;;;;;5.68;1.77;;;20.40;99.90;;;;;;7306295;32;20108;-65
2022/08/13 07:28:34;;;;;;;3.47;1.45;;;20.60;99.90;;;;;;7308646;32;20428;-59
2022/08/13 07:32:50;;;;;;;2.45;1.37;;;20.90;99.90;;;;;;7308465;32;20172;-59
2022/08/13 07:36:56;;;;;;;1.73;1.10;;;21.20;99.90;;;;;;7320357;32;20230;-60
2022/08/13 07:41:02;;;;;;;5.22;1.10;;;21.40;99.90;;;;;;7314865;32;20514;-68
2022/08/13 07:45:09;;;;;;;14.85;12.93;;;21.70;99.90;;;;;;7311466;32;20230;-68
2022/08/13 07:49:33;;;;;;;2.78;1.83;;;21.90;99.90;;;;;;7320474;32;20607;-67
2022/08/13 07:53:47;;;;;;;3.35;1.30;;;22.20;99.90;;;;;;7312273;32;20112;-67
2022/08/13 07:57:57;;;;;;;1.85;1.10;;;22.50;99.90;;;;;;7316409;32;20115;-65
2022/08/13 08:01:58;;;;;;;1.20;0.90;;;22.60;99.90;;;;;;7316585;32;20209;-64
2022/08/13 08:06:21;;;;;;;2.78;1.20;;;22.80;99.90;;;;;;7320315;32;20621;-67
2022/08/13 08:10:31;;;;;;;11.82;10.63;;;23.00;99.90;;;;;;7320612;32;20214;-67
2022/08/13 08:14:34;;;;;;;3.80;1.37;;;23.20;99.90;;;;;;7319195;32;20246;-67
2022/08/13 08:18:37;;;;;;;1.77;0.90;;;23.30;99.90;;;;;;7309780;32;20155;-68
2022/08/13 08:22:59;;;;;;;1.65;0.90;;;23.50;99.90;;;;;;7313297;32;20210;-64
2022/08/13 08:27:04;;;;;;;2.60;0.98;;;23.70;98.60;;;;;;7320448;32;20507;-68
2022/08/13 08:31:11;;;;;;;3.20;0.82;;;23.90;98.70;;;;;;7297913;32;20492;-66
2022/08/13 08:35:29;;;;;;;6.00;3.87;;;24.10;97.10;;;;;;7312822;32;20302;-68
2022/08/13 08:44:33;;;;;;;1.70;0.80;;;24.80;94.40;;;;;;7314391;32;20096;-67
2022/08/13 08:48:36;;;;;;;3.40;0.90;;;25.40;92.80;;;;;;7317262;32;20222;-69
2022/08/13 08:57:08;;;;;;;1.12;0.70;;;26.80;87.50;;;;;;7290563;32;20265;-67
2022/08/13 09:01:13;;;;;;;1.48;0.88;;;28.00;84.20;;;;;;7287918;32;20179;-69
2022/08/13 09:05:20;;;;;;;4.20;0.90;;;28.90;79.10;;;;;;7293425;32;20278;-68
2022/08/13 09:09:24;;;;;;;2.65;0.70;;;30.10;74.00;;;;;;7292605;32;20283;-69
2022/08/13 09:13:31;;;;;;;2.58;0.70;;;31.20;64.70;;;;;;7290154;32;20193;-69
2022/08/13 09:17:37;;;;;;;1.48;0.88;;;31.40;63.60;;;;;;7288851;32;21631;-71
2022/08/13 09:21:46;;;;;;;0.77;0.77;;;31.70;62.50;;;;;;7291950;32;20228;-70
2022/08/13 09:25:51;;;;;;;3.58;1.00;;;32.00;59.90;;;;;;7299579;32;20131;-69
2022/08/13 09:29:56;;;;;;;2.70;0.55;;;32.70;55.10;;;;;;7300560;32;20244;-70
2022/08/13 09:34:02;;;;;;;2.05;0.75;;;32.60;55.50;;;;;;7290518;32;21037;-69
2022/08/13 09:38:20;;;;;;;3.45;0.50;;;32.90;53.40;;;;;;7280459;32;20245;-68
2022/08/13 09:42:44;;;;;;;2.47;0.75;;;33.00;54.30;;;;;;7291546;32;20156;-68
2022/08/13 09:46:48;;;;;;;0.70;0.70;;;32.10;52.60;;;;;;7292498;32;20215;-65
2022/08/13 09:50:54;;;;;;;3.92;0.88;;;31.90;53.80;;;;;;7289555;32;20209;-64
2022/08/13 09:54:58;;;;;;;2.17;0.88;;;30.10;54.20;;;;;;7292986;32;20233;-67
2022/08/13 09:58:59;;;;;;;2.85;1.10;;;30.90;54.40;;;;;;7309355;32;20107;-65
2022/08/13 10:03:06;;;;;;;2.87;0.90;;;30.30;56.00;;;;;;7301033;32;20550;-65
2022/08/13 10:07:09;;;;;;;2.40;1.00;;;31.80;58.70;;;;;;7309948;32;20108;-63
2022/08/13 10:11:22;;;;;;;2.05;0.88;;;31.40;52.20;;;;;;7307429;32;20091;-64
2022/08/13 10:15:44;;;;;;;3.80;0.90;;;32.50;53.00;;;;;;7313567;32;20107;-65
2022/08/13 10:19:48;;;;;;;3.05;1.10;;;32.20;53.70;;;;;;7320396;32;20169;-64
2022/08/13 10:23:51;;;;;;;1.77;0.90;;;31.40;56.30;;;;;;7316211;32;20100;-65
2022/08/13 10:27:53;;;;;;;1.48;1.02;;;32.80;55.80;;;;;;7301625;32;20206;-65
2022/08/13 10:31:58;;;;;;;4.62;0.85;;;32.90;52.10;;;;;;7321367;32;20107;-64
2022/08/13 10:36:00;;;;;;;1.58;0.70;;;32.50;53.10;;;;;;7323941;32;20153;-65
2022/08/13 10:40:07;;;;;;;;;;;32.60;50.70;;;;;;7319732;32;20100;-65
2022/08/13 10:44:15;;;;;;;3.83;1.00;;;31.80;51.40;;;;;;7322896;32;20018;-65
2022/08/13 10:48:27;;;;;;;4.28;0.88;;;30.90;51.20;;;;;;7312071;32;20172;-64
2022/08/13 10:52:28;;;;;;;3.85;0.90;;;30.50;52.90;;;;;;7320657;32;20137;-65
2022/08/13 10:56:45;;;;;;;5.57;0.90;;;30.20;51.80;;;;;;7324588;32;20129;-65
2022/08/13 11:00:52;;;;;;;1.67;0.93;;;30.10;55.30;;;;;;7314137;32;20243;-65
2022/08/13 11:04:55;;;;;;;1.37;1.10;;;30.40;55.00;;;;;;7326666;32;20170;-65
2022/08/13 11:08:59;;;;;;;2.95;0.85;;;30.10;52.90;;;;;;7321104;32;20484;-65
2022/08/13 11:13:01;;;;;;;4.72;1.12;;;30.40;54.50;;;;;;7319533;32;20279;-65
2022/08/13 11:17:17;;;;;;;4.82;0.90;;;30.70;53.00;;;;;;7324437;32;20188;-65
2022/08/13 11:21:39;;;;;;;5.97;1.00;;;30.60;52.60;;;;;;7318884;32;20135;-65
2022/08/13 11:26:01;;;;;;;4.25;0.80;;;30.50;53.40;;;;;;7326842;32;20289;-65
2022/08/13 11:30:23;;;;;;;3.00;1.10;;;30.50;53.20;;;;;;7323254;32;20816;-65
2022/08/13 11:34:38;;;;;;;13.95;4.78;;;30.60;52.80;;;;;;7303687;32;20130;-65
2022/08/13 11:38:40;;;;;;;3.00;0.90;;;30.80;53.90;;;;;;7320060;32;20151;-65
2022/08/13 11:42:41;;;;;;;3.83;0.93;;;31.00;52.60;;;;;;7306109;32;20520;-65
2022/08/13 11:47:03;;;;;;;3.37;0.90;;;31.10;51.80;;;;;;7320273;32;20220;-65
2022/08/13 11:51:19;;;;;;;2.30;1.10;;;31.30;52.90;;;;;;7320459;32;20480;-65
2022/08/13 11:55:21;;;;;;;1.17;0.70;;;31.70;51.20;;;;;;7325996;32;20569;-64
2022/08/13 11:59:23;;;;;;;2.33;0.80;;;31.70;49.10;;;;;;7322297;32;20199;-65
2022/08/13 12:03:39;;;;;;;1.60;0.82;;;31.50;49.80;;;;;;7326310;32;20096;-65
2022/08/13 12:08:02;;;;;;;2.65;0.90;;;31.70;51.80;;;;;;7314873;32;20104;-65
2022/08/13 12:12:14;;;;;;;3.33;0.93;;;31.60;50.90;;;;;;7312565;32;20187;-65
2022/08/13 12:16:23;;;;;;;4.53;1.02;;;31.10;48.60;;;;;;7301462;32;20218;-64
2022/08/13 12:20:25;;;;;;;3.70;1.30;;;30.60;49.40;;;;;;7311812;32;20122;-64
2022/08/13 12:24:30;;;;;;;2.70;1.00;;;30.60;51.80;;;;;;7301924;32;20178;-65
2022/08/13 12:28:34;;;;;;;1.27;0.82;;;30.90;49.90;;;;;;7300882;32;20127;-64
2022/08/13 12:32:36;;;;;;;1.92;0.90;;;30.90;50.30;;;;;;7312823;32;20240;-64
2022/08/13 12:36:39;;;;;;;2.12;0.85;;;30.80;49.80;;;;;;7312287;32;20156;-64
2022/08/13 12:40:46;;;;;;;1.27;0.90;;;31.10;51.30;;;;;;7319660;32;20623;-64
2022/08/13 12:44:48;;;;;;;6.20;0.90;;;31.40;51.50;;;;;;7325924;32;20095;-65
2022/08/13 12:49:10;;;;;;;19.77;17.80;;;31.40;49.20;;;;;;7314160;32;20232;-64
2022/08/13 12:53:16;;;;;;;4.07;1.27;;;31.60;49.10;;;;;;7321029;32;20126;-64
2022/08/13 12:57:38;;;;;;;2.70;1.10;;;31.70;47.20;;;;;;7319391;32;20433;-63
2022/08/13 13:02:02;;;;;;;3.00;1.10;;;31.30;48.10;;;;;;7301345;32;20093;-64
2022/08/13 13:06:05;;;;;;;1.00;0.80;;;31.30;48.60;;;;;;7310564;32;20175;-64
2022/08/13 13:10:09;;;;;;;4.87;1.12;;;31.60;48.20;;;;;;7317848;32;20116;-64
2022/08/13 13:14:12;;;;;;;2.53;1.00;;;31.40;46.80;;;;;;7319227;32;20103;-64
2022/08/13 13:18:34;;;;;;;2.35;1.00;;;31.00;45.90;;;;;;7303241;32;20190;-64
2022/08/13 13:22:56;;;;;;;3.55;1.00;;;31.10;47.00;;;;;;7311371;32;20462;-64
2022/08/13 13:26:59;;;;;;;4.07;1.10;;;31.10;46.40;;;;;;7318992;32;20122;-64
2022/08/13 13:31:08;;;;;;;2.33;0.98;;;30.80;46.60;;;;;;7310630;32;20096;-64
2022/08/13 13:35:19;;;;;;;3.33;1.00;;;31.40;46.80;;;;;;7321128;32;20096;-64
2022/08/13 13:39:41;;;;;;;3.12;0.90;;;31.60;48.10;;;;;;7323501;32;20099;-64
2022/08/13 13:43:45;;;;;;;1.77;1.00;;;31.80;48.10;;;;;;7319306;32;20515;-64
2022/08/13 13:47:55;;;;;;;1.67;1.00;;;31.70;46.30;;;;;;7312893;32;20175;-64
2022/08/13 13:51:59;;;;;;;0.88;0.80;;;31.40;46.90;;;;;;7309024;32;20166;-64
2022/08/13 13:56:04;;;;;;;4.00;1.25;;;31.90;45.90;;;;;;7317561;32;20215;-64
2022/08/13 14:00:11;;;;;;;6.43;1.00;;;32.00;46.50;;;;;;7312934;32;20225;-64
2022/08/13 14:04:18;;;;;;;2.50;0.93;;;31.90;45.50;;;;;;7308605;32;20301;-64
2022/08/13 14:08:20;;;;;;;1.08;0.80;;;31.50;45.10;;;;;;7310631;32;20118;-64
2022/08/13 14:12:23;;;;;;;1.70;0.80;;;31.40;45.70;;;;;;7308850;32;20092;-64
2022/08/13 14:16:32;;;;;;;1.12;0.90;;;31.40;46.50;;;;;;7299304;32;20988;-65
2022/08/13 14:20:41;;;;;;;2.95;0.90;;;31.60;47.60;;;;;;7321278;32;20108;-64
2022/08/13 14:24:44;;;;;;;1.65;0.93;;;31.70;46.50;;;;;;7322575;32;20652;-64
2022/08/13 14:28:51;;;;;;;1.20;1.00;;;31.90;47.50;;;;;;7306970;32;20587;-64
2022/08/13 14:32:56;;;;;;;1.62;0.88;;;32.00;46.00;;;;;;7309816;32;20112;-64
2022/08/13 14:37:07;;;;;;;0.93;0.75;;;32.20;46.10;;;;;;7302576;32;20594;-66
2022/08/13 14:41:22;;;;;;;5.62;1.00;;;32.90;46.70;;;;;;7310305;32;20142;-64
2022/08/13 14:45:44;;;;;;;2.90;1.00;;;32.80;45.70;;;;;;7309529;32;20227;-66
2022/08/13 14:50:01;;;;;;;2.17;1.00;;;32.60;45.80;;;;;;7309673;32;20485;-64
2022/08/13 14:54:03;;;;;;;1.20;1.00;;;32.50;46.80;;;;;;7301888;32;20253;-65
2022/08/13 14:58:07;;;;;;;1.42;1.10;;;32.40;45.80;;;;;;7320451;32;20433;-64
2022/08/13 15:02:33;;;;;;;3.20;1.12;;;31.80;47.10;;;;;;7311560;32;20452;-64
2022/08/13 15:06:36;;;;;;;3.78;0.80;;;31.60;46.80;;;;;;7308263;32;20261;-64
2022/08/13 15:10:43;;;;;;;3.60;1.12;;;31.60;45.70;;;;;;7317811;32;20193;-64
2022/08/13 15:14:55;;;;;;;2.62;1.00;;;31.00;45.80;;;;;;7307519;32;20147;-64
2022/08/13 15:18:59;;;;;;;3.87;1.10;;;31.40;46.30;;;;;;7296686;32;20126;-64
2022/08/13 15:23:12;;;;;;;2.58;1.00;;;31.00;46.00;;;;;;7308581;32;20096;-64
2022/08/13 15:27:30;;;;;;;3.42;0.90;;;30.70;46.20;;;;;;7306367;32;20175;-64
2022/08/13 15:31:35;;;;;;;5.03;0.90;;;30.60;45.90;;;;;;7317052;32;20374;-64
2022/08/13 15:35:49;;;;;;;2.87;1.23;;;30.80;46.60;;;;;;7309211;32;20485;-64
2022/08/13 15:39:52;;;;;;;1.87;1.00;;;30.80;46.40;;;;;;7316973;32;20107;-64
2022/08/13 15:43:54;;;;;;;3.55;1.27;;;30.80;46.60;;;;;;7309555;32;20183;-64
2022/08/13 15:47:57;;;;;;;2.37;1.30;;;31.00;47.40;;;;;;7322800;32;20695;-64
2022/08/13 15:51:59;;;;;;;3.85;1.67;;;30.90;48.00;;;;;;7323379;32;20111;-64
2022/08/13 15:56:01;;;;;;;1.37;1.00;;;30.80;48.60;;;;;;7319434;32;20108;-64
2022/08/13 16:00:05;;;;;;;1.73;1.17;;;30.50;47.80;;;;;;7302115;32;20281;-64
2022/08/13 16:04:13;;;;;;;2.78;1.30;;;30.40;48.30;;;;;;7316254;32;20128;-64
2022/08/13 16:08:15;;;;;;;2.53;1.40;;;30.30;49.40;;;;;;7322579;32;20158;-64
2022/08/13 16:12:22;;;;;;;2.58;1.10;;;30.40;50.20;;;;;;7310717;32;20120;-64
2022/08/13 16:16:46;;;;;;;2.35;1.30;;;30.20;50.10;;;;;;7299470;32;20128;-64
2022/08/13 16:20:54;;;;;;;2.20;1.25;;;30.30;50.00;;;;;;7305456;32;20183;-64
2022/08/13 16:25:33;;;;;;;1.92;1.52;;;30.10;49.90;;;;;;7298190;32;20444;-64
2022/08/13 16:29:53;;;;;;;1.60;1.50;;;30.00;50.00;;;;;;7305622;32;20141;-64
2022/08/13 16:33:56;;;;;;;2.40;1.50;;;30.00;51.10;;;;;;7315074;32;20141;-64
2022/08/13 16:38:04;;;;;;;3.40;1.30;;;29.90;50.70;;;;;;7321495;32;20176;-63
2022/08/13 16:42:11;;;;;;;4.90;1.50;;;29.80;51.20;;;;;;7322342;32;20194;-64
2022/08/13 16:46:16;;;;;;;2.75;1.60;;;29.80;51.20;;;;;;7319615;32;20103;-64
2022/08/13 16:50:21;;;;;;;3.17;1.58;;;29.80;51.40;;;;;;7322801;32;20123;-63
2022/08/13 16:54:24;;;;;;;2.45;1.50;;;29.60;50.90;;;;;;7324848;32;20213;-64
2022/08/13 16:58:40;;;;;;;8.35;1.70;;;29.50;51.90;;;;;;7313916;32;20104;-64
2022/08/13 17:11:59;;;;;;;2.80;1.35;;;29.30;52.80;;;;;;7225238;32;20092;-65
2022/08/13 17:16:02;;;;;;;1.62;1.20;;;29.20;53.10;;;;;;7310792;32;20546;-64
2022/08/13 17:20:05;;;;;;;2.30;1.40;;;29.10;53.00;;;;;;7300263;32;20656;-64
2022/08/13 17:24:10;;;;;;;3.37;1.40;;;29.10;53.40;;;;;;7299749;32;20108;-63
2022/08/13 17:28:23;;;;;;;2.85;1.48;;;29.10;52.70;;;;;;7309781;32;20129;-65
2022/08/13 17:32:31;;;;;;;2.15;1.33;;;29.10;53.40;;;;;;7313907;32;20175;-65
2022/08/13 17:36:33;;;;;;;3.35;1.37;;;28.90;53.90;;;;;;7306551;32;20187;-65
2022/08/13 17:40:55;;;;;;;2.87;1.40;;;28.80;53.30;;;;;;7322460;32;20126;-65
2022/08/13 17:44:57;;;;;;;2.50;1.37;;;28.80;54.30;;;;;;7318406;32;20183;-64
2022/08/13 17:49:01;;;;;;;3.03;1.33;;;28.80;53.90;;;;;;7301321;32;20146;-64
2022/08/13 17:53:20;;;;;;;3.87;1.60;;;28.70;54.80;;;;;;7311744;32;20257;-64
2022/08/13 17:57:22;;;;;;;3.20;1.58;;;28.50;54.70;;;;;;7320634;32;20130;-64
2022/08/13 18:01:27;;;;;;;6.47;1.67;;;28.40;54.30;;;;;;7308936;32;20611;-65
2022/08/13 18:05:37;;;;;;;4.05;1.60;;;28.30;54.30;;;;;;7296162;32;20229;-64
2022/08/13 18:09:56;;;;;;;4.47;1.60;;;28.10;55.40;;;;;;7304837;32;20529;-65
2022/08/13 18:13:58;;;;;;;4.25;1.70;;;28.10;55.70;;;;;;7313869;32;20195;-65
2022/08/13 18:18:06;;;;;;;2.50;1.60;;;27.80;56.30;;;;;;7307723;32;20099;-65
2022/08/13 18:22:28;;;;;;;7.85;1.62;;;27.70;56.80;;;;;;7313694;32;20153;-65
2022/08/13 18:26:30;;;;;;;2.97;1.73;;;27.60;57.60;;;;;;7322675;32;20145;-66
2022/08/13 18:30:33;;;;;;;2.22;1.67;;;27.40;58.10;;;;;;7296443;32;20179;-65
2022/08/13 18:34:55;;;;;;;4.55;1.65;;;27.20;58.60;;;;;;7310434;32;20582;-66
2022/08/13 18:38:57;;;;;;;3.17;1.58;;;27.00;59.90;;;;;;7323498;32;20172;-65
2022/08/13 18:42:59;;;;;;;5.35;1.90;;;26.80;61.30;;;;;;7322499;32;20120;-66
2022/08/13 18:47:01;;;;;;;3.60;1.67;;;26.70;63.00;;;;;;7319428;32;20263;-64
2022/08/13 18:51:05;;;;;;;3.22;1.62;;;26.50;64.90;;;;;;7322256;32;20091;-65
2022/08/13 18:55:26;;;;;;;4.00;1.90;;;26.10;67.40;;;;;;7301981;32;20485;-64
2022/08/13 18:59:48;;;;;;;6.93;2.12;;;25.80;68.00;;;;;;7310297;32;20150;-65
2022/08/13 19:04:04;;;;;;;3.33;1.90;;;25.50;70.60;;;;;;7300633;32;20582;-65
2022/08/13 19:08:08;;;;;;;6.28;1.70;;;25.10;74.60;;;;;;7294568;32;20107;-64
2022/08/13 19:12:14;;;;;;;6.00;2.25;;;24.80;79.20;;;;;;7314111;32;20239;-66
2022/08/13 19:16:32;;;;;;;7.93;2.15;;;24.60;81.20;;;;;;7321626;32;20108;-65
2022/08/13 19:20:34;;;;;;;6.50;2.15;;;24.20;84.30;;;;;;7302221;32;20560;-66
2022/08/13 19:24:37;;;;;;;7.62;1.98;;;23.90;86.30;;;;;;7302744;32;20104;-65
2022/08/13 19:28:39;;;;;;;8.77;2.20;;;23.50;89.90;;;;;;7323693;32;20578;-63
2022/08/13 19:33:02;;;;;;;7.70;2.28;;;23.30;91.70;;;;;;7319292;32;20187;-65
2022/08/13 19:37:07;;;;;;;10.23;2.12;;;23.20;93.30;;;;;;7310543;32;20464;-66
2022/08/13 19:41:19;;;;;;;8.40;2.12;;;23.00;95.40;;;;;;7312239;32;20100;-65
2022/08/13 19:45:36;;;;;;;3.35;2.30;;;22.80;98.30;;;;;;7317805;32;20178;-65
2022/08/13 19:49:58;;;;;;;8.00;2.55;;;22.60;99.90;;;;;;7321389;32;20514;-65
2022/08/13 19:53:59;;;;;;;7.03;2.40;;;22.40;99.90;;;;;;7327126;32;20192;-65
2022/08/13 19:58:02;;;;;;;7.65;2.53;;;22.30;99.90;;;;;;7320510;32;20146;-65
2022/08/13 20:02:05;;;;;;;6.80;2.37;;;22.30;99.90;;;;;;7327233;32;20100;-64
2022/08/13 20:06:07;;;;;;;5.43;2.30;;;22.10;99.90;;;;;;7316055;32;20149;-65
2022/08/13 20:10:10;;;;;;;9.57;2.78;;;21.90;99.90;;;;;;7308827;32;20210;-66
2022/08/13 20:14:16;;;;;;;6.47;2.30;;;21.70;99.90;;;;;;7313161;32;20261;-65
2022/08/13 20:18:20;;;;;;;5.45;2.67;;;21.50;99.90;;;;;;7306362;32;20576;-65
2022/08/13 20:22:23;;;;;;;5.82;2.42;;;21.40;99.90;;;;;;7312156;32;20104;-66
2022/08/13 20:26:29;;;;;;;4.70;2.40;;;21.40;99.90;;;;;;7306856;32;20129;-66
2022/08/13 20:30:30;;;;;;;3.45;2.65;;;21.20;99.90;;;;;;7323653;32;20882;-66
2022/08/13 20:34:37;;;;;;;7.70;2.77;;;21.10;99.90;;;;;;7320445;32;20512;-65
2022/08/13 20:38:39;;;;;;;5.97;2.62;;;21.20;99.90;;;;;;7321433;32;20146;-65
2022/08/13 20:42:51;;;;;;;4.50;2.83;;;21.00;99.90;;;;;;7325608;32;20095;-66
2022/08/13 20:46:54;;;;;;;5.40;2.65;;;21.00;99.90;;;;;;7320074;32;20711;-65
2022/08/13 20:50:56;;;;;;;3.28;2.60;;;20.90;99.90;;;;;;7319817;32;20328;-66
2022/08/13 20:54:58;;;;;;;6.03;2.70;;;20.90;99.90;;;;;;7309093;32;20108;-65
2022/08/13 20:59:01;;;;;;;6.55;3.03;;;20.80;99.90;;;;;;7303182;32;20096;-66
2022/08/13 21:03:23;;;;;;;6.15;2.60;;;20.80;99.90;;;;;;7315499;32;20222;-65
2022/08/13 21:07:28;;;;;;;4.68;2.78;;;20.70;99.90;;;;;;7325464;32;20558;-65
2022/08/13 21:11:33;;;;;;;9.68;2.70;;;20.70;99.90;;;;;;7313933;32;20198;-65
2022/08/13 21:15:49;;;;;;;3.80;2.87;;;20.80;99.90;;;;;;7319145;32;20100;-64
2022/08/13 21:20:12;;;;;;;5.37;2.70;;;20.80;99.90;;;;;;7320100;32;20157;-64
2022/08/13 21:24:20;;;;;;;4.18;3.10;;;20.80;99.90;;;;;;7324361;32;20123;-65
2022/08/13 21:28:23;;;;;;;4.65;3.25;;;20.80;99.90;;;;;;7320093;32;20108;-65
2022/08/13 21:32:55;;;;;;;8.20;3.03;;;20.90;99.90;;;;;;7313674;32;20124;-65
2022/08/13 21:36:59;;;;;;;4.93;2.67;;;21.00;99.90;;;;;;7314663;32;20888;-65
2022/08/13 21:41:00;;;;;;;3.05;2.72;;;21.10;99.90;;;;;;7303650;32;20581;-65
2022/08/13 21:45:10;;;;;;;6.68;3.28;;;21.10;99.90;;;;;;7314620;32;20899;-65
2022/08/13 21:49:16;;;;;;;5.82;3.20;;;21.30;99.90;;;;;;7311121;32;20249;-65
2022/08/13 21:53:22;;;;;;;5.32;3.20;;;21.40;99.90;;;;;;7312692;32;20099;-65
2022/08/13 21:57:44;;;;;;;4.78;3.25;;;21.60;99.90;;;;;;7316911;32;20739;-65
2022/08/13 22:01:46;;;;;;;6.37;3.15;;;21.90;99.90;;;;;;7318001;32;20216;-65
2022/08/13 22:05:49;;;;;;;5.28;2.87;;;22.10;99.90;;;;;;7300191;32;20135;-65
2022/08/13 22:10:06;;;;;;;4.22;3.03;;;22.20;99.90;;;;;;7296750;32;20127;-63